• Join FlightAware (Why Join?)
  • Login
  • US Flag 
Gobble Gobble! 
09:07PM EST


 

Airport Tracker/Info


-or-


 

Live Flight TrackerFlight Track Log ✈ VNR160 ✈ 19-Apr-2013 ✈ KOPF - KSFB

Flight Track Log - Related Links

Times and Time Zones

All times are in EDT time to prevent confusion due to time zone crossing. See the VNR160 flight status page for this flight to view local times or setup timezone preferences in your user account.

Time Position Orientation Groundspeed Altitude Reporting Facility
EDT Latitude Longitude Course Direction KTS MPH feet Rate Location/Type
08:35PM 25.9267 -80.2228 69° East 174 200 2,700  Level Miami Center
08:36PM 25.9456 -80.2233 358° North 191 220 3,200 1,800 Climbing Miami Center
08:36PM 25.9639 -80.2492 308° West 197 227 4,400 2,160 Climbing Miami Center
08:37PM 25.9800 -80.2703 310° West 209 241 5,400 2,040 Climbing Miami Center
08:38PM 25.9994 -80.3289 290° West 204 235 7,400 1,860 Climbing Miami Center
08:39PM 26.0294 -80.3875 300° West 210 242 9,200 2,160 Climbing Miami Center
08:40PM 26.0942 -80.3869 360° North 192 221 11,800 2,100 Climbing Miami Center
08:41PM 26.1606 -80.4028 348° North 213 245 13,400 1,800 Climbing Miami Center
08:42PM 26.2206 -80.4325 336° Northwest 251 289 15,400 2,040 Climbing Miami Center
08:43PM 26.2886 -80.4647 337° Northwest 257 296 17,500 1,980 Climbing Miami Center
08:44PM 26.3608 -80.4969 338° Northwest 257 296 19,400 1,500 Climbing Miami Center
08:45PM 26.4244 -80.5431 327° Northwest 262 302 20,500 1,200 Climbing Miami Center
08:46PM 26.4900 -80.5961 324° Northwest 282 325 21,800 720 Climbing Miami Center
08:47PM 26.5597 -80.6447 328° Northwest 291 335 22,000 60 Climbing Miami Center
08:48PM 26.6489 -80.6683 347° North 313 360 22,000  Level Miami Center
08:49PM 26.7400 -80.6994 343° North 328 377 22,000  Level Miami Center
08:50PM 26.8136 -80.7600 324° Northwest 328 377 22,000  Level Miami Center
08:51PM 26.8850 -80.8228 322° Northwest 328 377 22,000  Level Miami Center
08:52PM 26.9461 -80.8786 321° Northwest 328 377 22,000  Level Miami Center
08:53PM 27.0194 -80.9439 322° Northwest 322 371 22,000  Level Miami Center
08:54PM 27.0908 -81.0047 323° Northwest 322 371 22,000  Level Miami Center
08:55PM 27.1597 -81.0725 319° Northwest 322 371 22,000 -600 Level Miami Center
08:56PM 27.2353 -81.1314 325° Northwest 322 371 20,800 -1,080 Descending Miami Center
08:57PM 27.3061 -81.2017 319° Northwest 327 376 19,900 -420 Descending Miami Center
08:58PM 27.3753 -81.2628 322° Northwest 327 376 20,000  Climbing Miami Center
08:59PM 27.4425 -81.3239 321° Northwest 321 369 20,000  Level Miami Center
09:00PM 27.5194 -81.3925 322° Northwest 321 369 20,000 -360 Level Miami Center
09:01PM 27.5886 -81.4536 322° Northwest 321 369 19,300 -1,560 Descending Miami Center
09:03PM 27.7167 -81.5667 322° Northwest 323 372 15,800 -2,040 Descending Orlando TRACON
09:04PM 27.8000 -81.6000 341° North 331 381 13,700 -2,160 Descending Orlando TRACON
09:05PM 27.8833 -81.6167 350° North 312 359 11,500 -1,920 Descending Orlando TRACON
09:05PM 27.9667 -81.6167 360° North 315 362 10,100 -720 Descending Orlando TRACON
09:07PM 28.0500 -81.6167 360° North 303 349 10,100  Level Orlando TRACON
09:08PM 28.1500 -81.6167 360° North 296 341 10,100  Level Orlando TRACON
09:09PM 28.2333 -81.6333 350° North 302 348 10,100  Level Orlando TRACON
09:10PM 28.3167 -81.6333 360° North 304 350 10,100 -120 Level Orlando TRACON
09:11PM 28.4000 -81.6333 360° North 308 354 9,900 -1,020 Descending Orlando TRACON
09:12PM 28.4667 -81.6000 24° Northeast 294 338 8,200 -1,860 Descending Orlando TRACON
09:13PM 28.5667 -81.5833 North 301 346 6,100 -1,920 Descending Orlando TRACON
09:14PM 28.6500 -81.5500 19° North 294 338 4,200 -1,920 Descending Orlando TRACON
09:15PM 28.7167 -81.5167 24° Northeast 256 295 2,300 -1,080 Descending Orlando TRACON
09:16PM 28.7500 -81.4500 60° Northeast 222 255 2,100 -300 Descending Orlando TRACON
09:17PM 28.7667 -81.4000 69° East 194 223 1,700 -240 Descending Orlando TRACON
09:18PM 28.7833 -81.3500 69° East 181 208 1,700 -420 Level Orlando TRACON
09:19PM 28.7833 -81.3000 90° East 118 136 900 -780 Descending Orlando TRACON
09:21PM 28.7667 -81.2333 77° East  Level FlightAware Approximate
09:28PM 28.7767 -81.2355 77° East  Level Estimated